sensor_id;sensor_type;location;lat;lon;timestamp;pressure;altitude;pressure_sealevel;temperature
45034;BMP280;30771;47.988;-4.186;2022-08-21T06:01:42;100588.25;;;17.32
45034;BMP280;30771;47.988;-4.186;2022-08-21T06:04:07;100586.63;;;17.31
45034;BMP280;30771;47.988;-4.186;2022-08-21T06:06:33;100590.09;;;17.32
45034;BMP280;30771;47.988;-4.186;2022-08-21T06:08:58;100595.97;;;17.34
45034;BMP280;30771;47.988;-4.186;2022-08-21T06:11:23;100594.94;;;17.35
45034;BMP280;30771;47.988;-4.186;2022-08-21T06:13:48;100594.38;;;17.33
45034;BMP280;30771;47.988;-4.186;2022-08-21T06:16:15;100598.91;;;17.32
45034;BMP280;30771;47.988;-4.186;2022-08-21T06:18:40;100601.56;;;17.32
45034;BMP280;30771;47.988;-4.186;2022-08-21T06:21:06;100608.72;;;17.32
45034;BMP280;30771;47.988;-4.186;2022-08-21T06:23:31;100608.47;;;17.33
45034;BMP280;30771;47.988;-4.186;2022-08-21T06:25:56;100611.16;;;17.33
45034;BMP280;30771;47.988;-4.186;2022-08-21T06:28:22;100600.50;;;17.33
45034;BMP280;30771;47.988;-4.186;2022-08-21T06:30:47;100597.59;;;17.35
45034;BMP280;30771;47.988;-4.186;2022-08-21T06:33:12;100585.66;;;17.37
45034;BMP280;30771;47.988;-4.186;2022-08-21T06:35:37;100593.97;;;17.41
45034;BMP280;30771;47.988;-4.186;2022-08-21T06:38:03;100602.25;;;17.44
45034;BMP280;30771;47.988;-4.186;2022-08-21T06:40:28;100608.97;;;17.47
45034;BMP280;30771;47.988;-4.186;2022-08-21T06:42:54;100598.84;;;17.49
45034;BMP280;30771;47.988;-4.186;2022-08-21T06:45:19;100600.47;;;17.50
45034;BMP280;30771;47.988;-4.186;2022-08-21T06:47:44;100607.66;;;17.49
45034;BMP280;30771;47.988;-4.186;2022-08-21T06:50:10;100607.66;;;17.49
45034;BMP280;30771;47.988;-4.186;2022-08-21T06:52:36;100599.66;;;17.49
45034;BMP280;30771;47.988;-4.186;2022-08-21T06:55:02;100599.94;;;17.48
45034;BMP280;30771;47.988;-4.186;2022-08-21T06:57:27;100611.06;;;17.45
45034;BMP280;30771;47.988;-4.186;2022-08-21T06:59:52;100605.41;;;17.41
45034;BMP280;30771;47.988;-4.186;2022-08-21T07:02:17;100599.06;;;17.42
45034;BMP280;30771;47.988;-4.186;2022-08-21T07:04:43;100607.84;;;17.43
45034;BMP280;30771;47.988;-4.186;2022-08-21T07:07:08;100609.69;;;17.42
45034;BMP280;30771;47.988;-4.186;2022-08-21T07:09:33;100608.59;;;17.43
45034;BMP280;30771;47.988;-4.186;2022-08-21T07:11:58;100608.59;;;17.43
45034;BMP280;30771;47.988;-4.186;2022-08-21T07:14:23;100606.22;;;17.42
45034;BMP280;30771;47.988;-4.186;2022-08-21T07:16:49;100601.97;;;17.41
45034;BMP280;30771;47.988;-4.186;2022-08-21T07:19:14;100608.59;;;17.43
45034;BMP280;30771;47.988;-4.186;2022-08-21T07:21:39;100594.25;;;17.44
45034;BMP280;30771;47.988;-4.186;2022-08-21T07:24:05;100596.09;;;17.44
45034;BMP280;30771;47.988;-4.186;2022-08-21T07:26:30;100584.66;;;17.43
45034;BMP280;30771;47.988;-4.186;2022-08-21T07:28:55;100586.28;;;17.44
45034;BMP280;30771;47.988;-4.186;2022-08-21T07:31:21;100580.94;;;17.44
45034;BMP280;30771;47.988;-4.186;2022-08-21T07:33:47;100581.97;;;17.43
45034;BMP280;30771;47.988;-4.186;2022-08-21T07:36:12;100588.41;;;17.42
45034;BMP280;30771;47.988;-4.186;2022-08-21T07:38:37;100587.31;;;17.43
45034;BMP280;30771;47.988;-4.186;2022-08-21T07:41:05;100592.16;;;17.46
45034;BMP280;30771;47.988;-4.186;2022-08-21T07:43:31;100577.75;;;17.42
45034;BMP280;30771;47.988;-4.186;2022-08-21T07:45:56;100586.91;;;17.51
45034;BMP280;30771;47.988;-4.186;2022-08-21T07:48:22;100568.03;;;17.53
45034;BMP280;30771;47.988;-4.186;2022-08-21T07:50:47;100579.81;;;17.57
45034;BMP280;30771;47.988;-4.186;2022-08-21T07:53:13;100580.66;;;17.62
45034;BMP280;30771;47.988;-4.186;2022-08-21T07:55:38;100585.28;;;17.67
45034;BMP280;30771;47.988;-4.186;2022-08-21T07:58:03;100582.13;;;17.70
45034;BMP280;30771;47.988;-4.186;2022-08-21T08:00:29;100578.72;;;17.74
45034;BMP280;30771;47.988;-4.186;2022-08-21T08:02:54;100571.81;;;17.78
45034;BMP280;30771;47.988;-4.186;2022-08-21T08:05:20;100575.38;;;17.84
45034;BMP280;30771;47.988;-4.186;2022-08-21T08:07:46;100562.34;;;17.87
45034;BMP280;30771;47.988;-4.186;2022-08-21T08:10:11;100566.63;;;17.88
45034;BMP280;30771;47.988;-4.186;2022-08-21T08:12:37;100570.63;;;17.91
45034;BMP280;30771;47.988;-4.186;2022-08-21T08:15:03;100569.03;;;17.90
45034;BMP280;30771;47.988;-4.186;2022-08-21T08:17:28;100578.63;;;17.91
45034;BMP280;30771;47.988;-4.186;2022-08-21T08:19:53;100583.72;;;17.92
45034;BMP280;30771;47.988;-4.186;2022-08-21T08:22:19;100576.84;;;17.96
45034;BMP280;30771;47.988;-4.186;2022-08-21T08:24:45;100584.91;;;18.01
45034;BMP280;30771;47.988;-4.186;2022-08-21T08:27:11;100583.63;;;18.04
45034;BMP280;30771;47.988;-4.186;2022-08-21T08:29:36;100569.53;;;18.08
45034;BMP280;30771;47.988;-4.186;2022-08-21T08:32:01;100567.22;;;18.17
45034;BMP280;30771;47.988;-4.186;2022-08-21T08:34:26;100566.22;;;18.23
45034;BMP280;30771;47.988;-4.186;2022-08-21T08:36:52;100559.88;;;18.29
45034;BMP280;30771;47.988;-4.186;2022-08-21T08:39:17;100564.78;;;18.37
45034;BMP280;30771;47.988;-4.186;2022-08-21T08:41:42;100553.13;;;18.48
45034;BMP280;30771;47.988;-4.186;2022-08-21T08:44:09;100558.56;;;18.58
45034;BMP280;30771;47.988;-4.186;2022-08-21T08:46:36;100559.44;;;18.69
45034;BMP280;30771;47.988;-4.186;2022-08-21T08:49:15;100535.75;;;18.72
45034;BMP280;30771;47.988;-4.186;2022-08-21T08:51:46;100550.81;;;18.93
45034;BMP280;30771;47.988;-4.186;2022-08-21T08:54:17;100549.06;;;19.04
45034;BMP280;30771;47.988;-4.186;2022-08-21T08:56:44;100557.63;;;19.11
45034;BMP280;30771;47.988;-4.186;2022-08-21T08:59:19;100554.13;;;19.05
45034;BMP280;30771;47.988;-4.186;2022-08-21T09:01:45;100561.53;;;18.98
45034;BMP280;30771;47.988;-4.186;2022-08-21T09:04:10;100546.84;;;18.96
45034;BMP280;30771;47.988;-4.186;2022-08-21T09:12:03;100577.47;;;18.88
45034;BMP280;30771;47.988;-4.186;2022-08-21T09:19:53;100575.03;;;18.82
45034;BMP280;30771;47.988;-4.186;2022-08-21T09:27:34;100567.09;;;18.87
45034;BMP280;30771;47.988;-4.186;2022-08-21T09:29:59;100571.94;;;18.95
45034;BMP280;30771;47.988;-4.186;2022-08-21T09:32:26;100574.16;;;19.08
45034;BMP280;30771;47.988;-4.186;2022-08-21T09:35:33;100583.06;;;19.23
45034;BMP280;30771;47.988;-4.186;2022-08-21T09:37:50;100584.22;;;19.37
45034;BMP280;30771;47.988;-4.186;2022-08-21T09:40:28;100578.94;;;19.47
45034;BMP280;30771;47.988;-4.186;2022-08-21T09:42:54;100584.00;;;19.54
45034;BMP280;30771;47.988;-4.186;2022-08-21T09:45:20;100588.06;;;19.56
45034;BMP280;30771;47.988;-4.186;2022-08-21T09:47:45;100582.53;;;19.73
45034;BMP280;30771;47.988;-4.186;2022-08-21T09:52:41;100581.31;;;20.16
45034;BMP280;30771;47.988;-4.186;2022-08-21T09:55:07;100590.44;;;20.30
45034;BMP280;30771;47.988;-4.186;2022-08-21T09:57:39;100596.09;;;20.38
45034;BMP280;30771;47.988;-4.186;2022-08-21T10:00:08;100595.56;;;20.56
45034;BMP280;30771;47.988;-4.186;2022-08-21T10:02:34;100600.06;;;20.81
45034;BMP280;30771;47.988;-4.186;2022-08-21T10:05:07;100591.75;;;21.12
45034;BMP280;30771;47.988;-4.186;2022-08-21T10:07:35;100594.63;;;21.41
45034;BMP280;30771;47.988;-4.186;2022-08-21T10:10:08;100596.91;;;21.67
45034;BMP280;30771;47.988;-4.186;2022-08-21T10:15:36;100601.00;;;22.09
45034;BMP280;30771;47.988;-4.186;2022-08-21T10:23:06;100596.59;;;22.61
45034;BMP280;30771;47.988;-4.186;2022-08-21T10:25:35;100611.56;;;22.62
45034;BMP280;30771;47.988;-4.186;2022-08-21T10:28:05;100620.88;;;22.75
45034;BMP280;30771;47.988;-4.186;2022-08-21T10:35:53;100624.91;;;23.29
45034;BMP280;30771;47.988;-4.186;2022-08-21T10:41:01;100610.44;;;23.67
45034;BMP280;30771;47.988;-4.186;2022-08-21T10:43:42;100620.88;;;23.93
45034;BMP280;30771;47.988;-4.186;2022-08-21T10:51:25;100624.69;;;24.24
45034;BMP280;30771;47.988;-4.186;2022-08-21T10:56:31;100632.34;;;23.98
45034;BMP280;30771;47.988;-4.186;2022-08-21T11:06:34;100614.38;;;24.12
45034;BMP280;30771;47.988;-4.186;2022-08-21T11:09:08;100618.84;;;24.03
45034;BMP280;30771;47.988;-4.186;2022-08-21T11:11:35;100621.88;;;23.97
45034;BMP280;30771;47.988;-4.186;2022-08-21T11:14:03;100616.41;;;24.02
45034;BMP280;30771;47.988;-4.186;2022-08-21T11:21:41;100616.31;;;23.69
45034;BMP280;30771;47.988;-4.186;2022-08-21T11:26:43;100614.97;;;23.91
45034;BMP280;30771;47.988;-4.186;2022-08-21T11:29:31;100604.94;;;23.96
45034;BMP280;30771;47.988;-4.186;2022-08-21T11:32:20;100612.84;;;23.88
45034;BMP280;30771;47.988;-4.186;2022-08-21T11:39:55;100603.19;;;24.05
45034;BMP280;30771;47.988;-4.186;2022-08-21T11:50:30;100606.09;;;24.27
45034;BMP280;30771;47.988;-4.186;2022-08-21T11:53:14;100598.09;;;24.36
45034;BMP280;30771;47.988;-4.186;2022-08-21T11:58:12;100597.59;;;24.52
45034;BMP280;30771;47.988;-4.186;2022-08-21T12:00:40;100594.69;;;24.62
45034;BMP280;30771;47.988;-4.186;2022-08-21T12:03:14;100597.91;;;24.64
45034;BMP280;30771;47.988;-4.186;2022-08-21T12:05:41;100599.50;;;24.65
45034;BMP280;30771;47.988;-4.186;2022-08-21T12:08:11;100608.16;;;24.62
45034;BMP280;30771;47.988;-4.186;2022-08-21T12:10:41;100602.53;;;24.45
45034;BMP280;30771;47.988;-4.186;2022-08-21T12:13:09;100603.06;;;24.47
45034;BMP280;30771;47.988;-4.186;2022-08-21T12:15:34;100592.78;;;24.49
45034;BMP280;30771;47.988;-4.186;2022-08-21T12:18:18;100599.97;;;24.54
45034;BMP280;30771;47.988;-4.186;2022-08-21T12:20:56;100603.53;;;24.49
45034;BMP280;30771;47.988;-4.186;2022-08-21T12:23:26;100605.53;;;24.44
45034;BMP280;30771;47.988;-4.186;2022-08-21T12:28:26;100602.81;;;24.30
45034;BMP280;30771;47.988;-4.186;2022-08-21T12:30:52;100599.50;;;24.33
45034;BMP280;30771;47.988;-4.186;2022-08-21T12:35:42;100594.34;;;24.37
45034;BMP280;30771;47.988;-4.186;2022-08-21T12:43:15;100603.88;;;24.29
45034;BMP280;30771;47.988;-4.186;2022-08-21T12:45:42;100593.03;;;24.16
45034;BMP280;30771;47.988;-4.186;2022-08-21T12:48:26;100591.97;;;24.17
45034;BMP280;30771;47.988;-4.186;2022-08-21T12:50:56;100585.44;;;24.36
45034;BMP280;30771;47.988;-4.186;2022-08-21T12:55:56;100592.28;;;24.47
45034;BMP280;30771;47.988;-4.186;2022-08-21T12:58:22;100584.38;;;24.37
45034;BMP280;30771;47.988;-4.186;2022-08-21T13:00:49;100584.41;;;24.51
45034;BMP280;30771;47.988;-4.186;2022-08-21T13:03:15;100580.94;;;24.64
45034;BMP280;30771;47.988;-4.186;2022-08-21T13:05:43;100579.72;;;24.70
45034;BMP280;30771;47.988;-4.186;2022-08-21T13:08:12;100563.88;;;24.82
45034;BMP280;30771;47.988;-4.186;2022-08-21T13:10:37;100558.13;;;24.88
45034;BMP280;30771;47.988;-4.186;2022-08-21T13:13:06;100562.03;;;24.96
45034;BMP280;30771;47.988;-4.186;2022-08-21T13:15:33;100554.41;;;24.98
45034;BMP280;30771;47.988;-4.186;2022-08-21T13:20:51;100560.69;;;25.20
45034;BMP280;30771;47.988;-4.186;2022-08-21T13:23:28;100557.06;;;25.38
45034;BMP280;30771;47.988;-4.186;2022-08-21T13:25:54;100561.53;;;25.43
45034;BMP280;30771;47.988;-4.186;2022-08-21T13:28:20;100568.31;;;25.40
45034;BMP280;30771;47.988;-4.186;2022-08-21T13:30:46;100579.34;;;25.30
45034;BMP280;30771;47.988;-4.186;2022-08-21T13:33:12;100570.88;;;25.23
45034;BMP280;30771;47.988;-4.186;2022-08-21T13:35:49;100565.50;;;25.10
45034;BMP280;30771;47.988;-4.186;2022-08-21T13:38:15;100563.22;;;25.03
45034;BMP280;30771;47.988;-4.186;2022-08-21T13:40:44;100556.81;;;24.99
45034;BMP280;30771;47.988;-4.186;2022-08-21T13:43:13;100554.84;;;24.91
45034;BMP280;30771;47.988;-4.186;2022-08-21T13:45:38;100551.31;;;24.77
45034;BMP280;30771;47.988;-4.186;2022-08-21T13:48:04;100545.72;;;24.74
45034;BMP280;30771;47.988;-4.186;2022-08-21T13:50:29;100539.72;;;24.77
45034;BMP280;30771;47.988;-4.186;2022-08-21T13:52:59;100537.25;;;24.80
45034;BMP280;30771;47.988;-4.186;2022-08-21T13:55:33;100533.38;;;24.86
45034;BMP280;30771;47.988;-4.186;2022-08-21T13:57:59;100521.69;;;24.91
45034;BMP280;30771;47.988;-4.186;2022-08-21T14:00:28;100518.28;;;24.99
45034;BMP280;30771;47.988;-4.186;2022-08-21T14:02:54;100522.00;;;25.03
45034;BMP280;30771;47.988;-4.186;2022-08-21T14:05:28;100523.88;;;25.02
45034;BMP280;30771;47.988;-4.186;2022-08-21T14:08:00;100524.47;;;24.99
45034;BMP280;30771;47.988;-4.186;2022-08-21T14:10:26;100518.50;;;25.02
45034;BMP280;30771;47.988;-4.186;2022-08-21T14:12:52;100520.75;;;25.09
45034;BMP280;30771;47.988;-4.186;2022-08-21T14:15:23;100521.88;;;24.94
45034;BMP280;30771;47.988;-4.186;2022-08-21T14:17:48;100514.41;;;24.91
45034;BMP280;30771;47.988;-4.186;2022-08-21T14:20:33;100517.72;;;24.88
45034;BMP280;30771;47.988;-4.186;2022-08-21T14:22:58;100515.59;;;24.85
45034;BMP280;30771;47.988;-4.186;2022-08-21T14:30:19;100508.03;;;24.74
45034;BMP280;30771;47.988;-4.186;2022-08-21T14:32:44;100508.13;;;24.82
45034;BMP280;30771;47.988;-4.186;2022-08-21T14:35:09;100499.22;;;24.82
45034;BMP280;30771;47.988;-4.186;2022-08-21T14:37:34;100513.72;;;24.72
45034;BMP280;30771;47.988;-4.186;2022-08-21T14:40:00;100515.59;;;24.58
45034;BMP280;30771;47.988;-4.186;2022-08-21T14:42:25;100512.81;;;24.50
45034;BMP280;30771;47.988;-4.186;2022-08-21T14:44:50;100515.88;;;24.43
45034;BMP280;30771;47.988;-4.186;2022-08-21T14:47:16;100520.84;;;24.36
45034;BMP280;30771;47.988;-4.186;2022-08-21T14:49:41;100525.22;;;24.32
45034;BMP280;30771;47.988;-4.186;2022-08-21T14:52:06;100517.91;;;24.19
45034;BMP280;30771;47.988;-4.186;2022-08-21T14:54:32;100524.94;;;24.02
45034;BMP280;30771;47.988;-4.186;2022-08-21T14:57:03;100519.78;;;23.86
45034;BMP280;30771;47.988;-4.186;2022-08-21T14:59:29;100520.97;;;23.80
45034;BMP280;30771;47.988;-4.186;2022-08-21T15:01:55;100514.50;;;23.63
45034;BMP280;30771;47.988;-4.186;2022-08-21T15:04:20;100508.19;;;23.54
45034;BMP280;30771;47.988;-4.186;2022-08-21T15:06:45;100501.28;;;23.48
45034;BMP280;30771;47.988;-4.186;2022-08-21T15:09:10;100500.56;;;23.42
45034;BMP280;30771;47.988;-4.186;2022-08-21T15:11:35;100503.84;;;23.39
45034;BMP280;30771;47.988;-4.186;2022-08-21T15:14:02;100499.84;;;23.37
45034;BMP280;30771;47.988;-4.186;2022-08-21T15:16:28;100498.53;;;23.34
45034;BMP280;30771;47.988;-4.186;2022-08-21T15:18:54;100498.34;;;23.26
45034;BMP280;30771;47.988;-4.186;2022-08-21T15:21:19;100501.78;;;23.13
45034;BMP280;30771;47.988;-4.186;2022-08-21T15:23:44;100499.44;;;23.06
45034;BMP280;30771;47.988;-4.186;2022-08-21T15:26:09;100499.84;;;22.95
45034;BMP280;30771;47.988;-4.186;2022-08-21T15:28:34;100494.03;;;22.88
45034;BMP280;30771;47.988;-4.186;2022-08-21T15:31:00;100488.75;;;22.78
45034;BMP280;30771;47.988;-4.186;2022-08-21T15:33:25;100490.97;;;22.71
45034;BMP280;30771;47.988;-4.186;2022-08-21T15:35:50;100485.88;;;22.69
45034;BMP280;30771;47.988;-4.186;2022-08-21T15:38:16;100483.13;;;22.74
45034;BMP280;30771;47.988;-4.186;2022-08-21T15:41:02;100481.25;;;22.75
45034;BMP280;30771;47.988;-4.186;2022-08-21T15:43:27;100478.63;;;22.70
45034;BMP280;30771;47.988;-4.186;2022-08-21T15:45:53;100477.63;;;22.66
45034;BMP280;30771;47.988;-4.186;2022-08-21T15:48:18;100468.22;;;22.63
45034;BMP280;30771;47.988;-4.186;2022-08-21T15:50:44;100466.63;;;22.62
45034;BMP280;30771;47.988;-4.186;2022-08-21T15:53:09;100465.25;;;22.65
45034;BMP280;30771;47.988;-4.186;2022-08-21T15:55:37;100467.75;;;22.61
45034;BMP280;30771;47.988;-4.186;2022-08-21T15:58:02;100460.28;;;22.53
45034;BMP280;30771;47.988;-4.186;2022-08-21T16:00:28;100457.38;;;22.50
45034;BMP280;30771;47.988;-4.186;2022-08-21T16:02:55;100456.91;;;22.43
45034;BMP280;30771;47.988;-4.186;2022-08-21T16:05:21;100451.63;;;22.33
45034;BMP280;30771;47.988;-4.186;2022-08-21T16:07:47;100459.44;;;22.29
45034;BMP280;30771;47.988;-4.186;2022-08-21T16:10:13;100465.03;;;22.33
45034;BMP280;30771;47.988;-4.186;2022-08-21T16:12:41;100456.13;;;22.37
45034;BMP280;30771;47.988;-4.186;2022-08-21T16:15:09;100461.50;;;22.37
45034;BMP280;30771;47.988;-4.186;2022-08-21T16:17:35;100472.25;;;22.37
45034;BMP280;30771;47.988;-4.186;2022-08-21T16:20:03;100477.91;;;22.36
45034;BMP280;30771;47.988;-4.186;2022-08-21T16:22:28;100483.53;;;22.39
45034;BMP280;30771;47.988;-4.186;2022-08-21T16:24:53;100477.28;;;22.44
45034;BMP280;30771;47.988;-4.186;2022-08-21T16:27:19;100469.25;;;22.44
45034;BMP280;30771;47.988;-4.186;2022-08-21T16:29:44;100465.00;;;22.38
45034;BMP280;30771;47.988;-4.186;2022-08-21T16:32:10;100459.97;;;22.31
45034;BMP280;30771;47.988;-4.186;2022-08-21T16:34:35;100459.53;;;22.24
45034;BMP280;30771;47.988;-4.186;2022-08-21T16:37:01;100456.59;;;22.21
45034;BMP280;30771;47.988;-4.186;2022-08-21T16:39:26;100455.56;;;22.17
45034;BMP280;30771;47.988;-4.186;2022-08-21T16:41:51;100461.25;;;22.10
45034;BMP280;30771;47.988;-4.186;2022-08-21T16:44:17;100465.84;;;22.05
45034;BMP280;30771;47.988;-4.186;2022-08-21T16:46:42;100462.41;;;21.99
45034;BMP280;30771;47.988;-4.186;2022-08-21T16:49:08;100453.00;;;22.02
45034;BMP280;30771;47.988;-4.186;2022-08-21T16:51:33;100462.66;;;22.03
45034;BMP280;30771;47.988;-4.186;2022-08-21T16:53:58;100463.19;;;22.05
45034;BMP280;30771;47.988;-4.186;2022-08-21T16:56:24;100464.75;;;22.06
45034;BMP280;30771;47.988;-4.186;2022-08-21T16:58:50;100468.22;;;22.06
45034;BMP280;30771;47.988;-4.186;2022-08-21T17:01:18;100468.28;;;22.01
45034;BMP280;30771;47.988;-4.186;2022-08-21T17:03:44;100456.56;;;21.92
45034;BMP280;30771;47.988;-4.186;2022-08-21T17:06:10;100449.44;;;21.78
45034;BMP280;30771;47.988;-4.186;2022-08-21T17:08:35;100446.28;;;21.71
45034;BMP280;30771;47.988;-4.186;2022-08-21T17:11:01;100433.41;;;21.67
45034;BMP280;30771;47.988;-4.186;2022-08-21T17:13:27;100433.72;;;21.66
45034;BMP280;30771;47.988;-4.186;2022-08-21T17:15:53;100434.25;;;21.63
45034;BMP280;30771;47.988;-4.186;2022-08-21T17:18:19;100432.44;;;21.58
45034;BMP280;30771;47.988;-4.186;2022-08-21T17:20:45;100430.28;;;21.55
45034;BMP280;30771;47.988;-4.186;2022-08-21T17:23:11;100430.84;;;21.52
45034;BMP280;30771;47.988;-4.186;2022-08-21T17:25:37;100430.91;;;21.42
45034;BMP280;30771;47.988;-4.186;2022-08-21T17:28:03;100421.03;;;21.38
45034;BMP280;30771;47.988;-4.186;2022-08-21T17:30:28;100430.16;;;21.37
45034;BMP280;30771;47.988;-4.186;2022-08-21T17:32:54;100431.22;;;21.36
45034;BMP280;30771;47.988;-4.186;2022-08-21T17:35:21;100419.16;;;21.33
45034;BMP280;30771;47.988;-4.186;2022-08-21T17:37:46;100413.03;;;21.28
45034;BMP280;30771;47.988;-4.186;2022-08-21T17:40:12;100409.31;;;21.24
45034;BMP280;30771;47.988;-4.186;2022-08-21T17:42:39;100409.84;;;21.21
45034;BMP280;30771;47.988;-4.186;2022-08-21T17:45:04;100420.91;;;21.14
45034;BMP280;30771;47.988;-4.186;2022-08-21T17:47:30;100418.22;;;21.09
45034;BMP280;30771;47.988;-4.186;2022-08-21T17:49:55;100408.91;;;21.02
45034;BMP280;30771;47.988;-4.186;2022-08-21T17:52:20;100415.06;;;20.97
45034;BMP280;30771;47.988;-4.186;2022-08-21T17:54:45;100412.41;;;20.92
45034;BMP280;30771;47.988;-4.186;2022-08-21T17:57:17;100413.50;;;20.86
45034;BMP280;30771;47.988;-4.186;2022-08-21T17:59:43;100407.09;;;20.82
45034;BMP280;30771;47.988;-4.186;2022-08-21T18:02:08;100402.81;;;20.76
45034;BMP280;30771;47.988;-4.186;2022-08-21T18:04:34;100407.13;;;20.72
45034;BMP280;30771;47.988;-4.186;2022-08-21T18:06:59;100409.28;;;20.70
45034;BMP280;30771;47.988;-4.186;2022-08-21T18:09:24;100403.41;;;20.68
45034;BMP280;30771;47.988;-4.186;2022-08-21T18:11:49;100397.53;;;20.61
45034;BMP280;30771;47.988;-4.186;2022-08-21T18:14:14;100393.81;;;20.57
45034;BMP280;30771;47.988;-4.186;2022-08-21T18:16:40;100393.81;;;20.52
45034;BMP280;30771;47.988;-4.186;2022-08-21T18:19:09;100393.28;;;20.50
45034;BMP280;30771;47.988;-4.186;2022-08-21T18:21:35;100402.09;;;20.51
45034;BMP280;30771;47.988;-4.186;2022-08-21T18:24:00;100397.84;;;20.50
45034;BMP280;30771;47.988;-4.186;2022-08-21T18:26:30;100403.19;;;20.50
45034;BMP280;30771;47.988;-4.186;2022-08-21T18:28:56;100404.00;;;20.50
45034;BMP280;30771;47.988;-4.186;2022-08-21T18:31:22;100401.59;;;20.49
45034;BMP280;30771;47.988;-4.186;2022-08-21T18:33:48;100411.47;;;20.48
45034;BMP280;30771;47.988;-4.186;2022-08-21T18:36:13;100417.06;;;20.47
45034;BMP280;30771;47.988;-4.186;2022-08-21T18:38:38;100421.91;;;20.45
45034;BMP280;30771;47.988;-4.186;2022-08-21T18:41:03;100422.72;;;20.40
45034;BMP280;30771;47.988;-4.186;2022-08-21T18:43:28;100425.66;;;20.39
45034;BMP280;30771;47.988;-4.186;2022-08-21T18:45:53;100423.81;;;20.34
45034;BMP280;30771;47.988;-4.186;2022-08-21T18:48:19;100429.69;;;20.31
45034;BMP280;30771;47.988;-4.186;2022-08-21T18:50:44;100431.84;;;20.29
45034;BMP280;30771;47.988;-4.186;2022-08-21T18:53:11;100440.94;;;20.28
45034;BMP280;30771;47.988;-4.186;2022-08-21T18:55:38;100436.63;;;20.27
45034;BMP280;30771;47.988;-4.186;2022-08-21T18:58:04;100442.78;;;20.28
45034;BMP280;30771;47.988;-4.186;2022-08-21T19:00:30;100438.53;;;20.27
45034;BMP280;30771;47.988;-4.186;2022-08-21T19:02:56;100443.34;;;20.25
45034;BMP280;30771;47.988;-4.186;2022-08-21T19:05:22;100443.59;;;20.23
45034;BMP280;30771;47.988;-4.186;2022-08-21T19:07:48;100445.75;;;20.21
45034;BMP280;30771;47.988;-4.186;2022-08-21T19:10:15;100454.03;;;20.20
45034;BMP280;30771;47.988;-4.186;2022-08-21T19:12:40;100452.66;;;20.22
45034;BMP280;30771;47.988;-4.186;2022-08-21T19:15:07;100462.03;;;20.20
45034;BMP280;30771;47.988;-4.186;2022-08-21T19:17:33;100463.66;;;20.21
45034;BMP280;30771;47.988;-4.186;2022-08-21T19:20:00;100466.63;;;20.19
45034;BMP280;30771;47.988;-4.186;2022-08-21T19:22:26;100469.28;;;20.19
45034;BMP280;30771;47.988;-4.186;2022-08-21T19:24:51;100462.31;;;20.18
45034;BMP280;30771;47.988;-4.186;2022-08-21T19:27:16;100464.47;;;20.16
45034;BMP280;30771;47.988;-4.186;2022-08-21T19:29:41;100462.06;;;20.15
45034;BMP280;30771;47.988;-4.186;2022-08-21T19:32:07;100456.19;;;20.13
45034;BMP280;30771;47.988;-4.186;2022-08-21T19:34:32;100463.41;;;20.12
45034;BMP280;30771;47.988;-4.186;2022-08-21T19:36:59;100480.25;;;20.13
45034;BMP280;30771;47.988;-4.186;2022-08-21T19:39:25;100477.03;;;20.11
45034;BMP280;30771;47.988;-4.186;2022-08-21T19:41:53;100466.31;;;20.11
45034;BMP280;30771;47.988;-4.186;2022-08-21T19:44:21;100476.78;;;20.12
45034;BMP280;30771;47.988;-4.186;2022-08-21T19:46:47;100475.16;;;20.11
45034;BMP280;30771;47.988;-4.186;2022-08-21T19:49:14;100468.19;;;20.10
45034;BMP280;30771;47.988;-4.186;2022-08-21T19:51:40;100468.19;;;20.10
45034;BMP280;30771;47.988;-4.186;2022-08-21T19:54:05;100474.34;;;20.11
45034;BMP280;30771;47.988;-4.186;2022-08-21T19:56:31;100463.91;;;20.09
45034;BMP280;30771;47.988;-4.186;2022-08-21T19:58:57;100472.22;;;20.08
45034;BMP280;30771;47.988;-4.186;2022-08-21T20:01:23;100468.19;;;20.05
45034;BMP280;30771;47.988;-4.186;2022-08-21T20:03:48;100477.00;;;20.06
45034;BMP280;30771;47.988;-4.186;2022-08-21T20:06:14;100479.16;;;20.04
45034;BMP280;30771;47.988;-4.186;2022-08-21T20:08:39;100473.28;;;20.02
45034;BMP280;30771;47.988;-4.186;2022-08-21T20:11:05;100477.81;;;20.01
45034;BMP280;30771;47.988;-4.186;2022-08-21T20:13:30;100472.47;;;20.01
45034;BMP280;30771;47.988;-4.186;2022-08-21T20:15:56;100468.47;;;19.99
45034;BMP280;30771;47.988;-4.186;2022-08-21T20:18:21;100474.06;;;19.97
45034;BMP280;30771;47.988;-4.186;2022-08-21T20:20:46;100475.66;;;19.98
45034;BMP280;30771;47.988;-4.186;2022-08-21T20:23:12;100476.75;;;19.97
45034;BMP280;30771;47.988;-4.186;2022-08-21T20:25:37;100474.88;;;19.98
45034;BMP280;30771;47.988;-4.186;2022-08-21T20:28:03;100473.00;;;19.98
45034;BMP280;30771;47.988;-4.186;2022-08-21T20:30:28;100471.13;;;19.99
45034;BMP280;30771;47.988;-4.186;2022-08-21T20:32:54;100473.81;;;19.99
45034;BMP280;30771;47.988;-4.186;2022-08-21T20:35:19;100476.47;;;19.99
45034;BMP280;30771;47.988;-4.186;2022-08-21T20:37:44;100471.13;;;19.99
45034;BMP280;30771;47.988;-4.186;2022-08-21T20:40:10;100470.88;;;20.00
45034;BMP280;30771;47.988;-4.186;2022-08-21T20:42:36;100470.88;;;20.00
45034;BMP280;30771;47.988;-4.186;2022-08-21T20:45:01;100462.31;;;20.03
45034;BMP280;30771;47.988;-4.186;2022-08-21T20:47:26;100467.44;;;20.05
45034;BMP280;30771;47.988;-4.186;2022-08-21T20:49:52;100465.81;;;20.04
45034;BMP280;30771;47.988;-4.186;2022-08-21T20:52:20;100467.44;;;20.05
45034;BMP280;30771;47.988;-4.186;2022-08-21T20:54:56;100467.44;;;20.05
45034;BMP280;30771;47.988;-4.186;2022-08-21T20:57:34;100459.09;;;20.06
45034;BMP280;30771;47.988;-4.186;2022-08-21T21:00:10;100460.16;;;20.05
45034;BMP280;30771;47.988;-4.186;2022-08-21T21:02:51;100456.72;;;20.05
45034;BMP280;30771;47.988;-4.186;2022-08-21T21:05:22;100459.66;;;20.03
45034;BMP280;30771;47.988;-4.186;2022-08-21T21:10:33;100448.72;;;20.05
45034;BMP280;30771;47.988;-4.186;2022-08-21T21:13:09;100440.41;;;20.06
45034;BMP280;30771;47.988;-4.186;2022-08-21T21:15:36;100449.22;;;20.07
45034;BMP280;30771;47.988;-4.186;2022-08-21T21:18:07;100443.06;;;20.06
45034;BMP280;30771;47.988;-4.186;2022-08-21T21:20:36;100445.75;;;20.06